Time;durP1;ratioP1;P1;durP2;ratioP2;P2;SDS_P1;SDS_P2;PMS_P1;PMS_P2;Temp;Humidity;BMP_temperature;BMP_pressure;BME280_temperature;BME280_humidity;BME280_pressure;Samples;Min_cycle;Max_cycle;Signal;HPM_P1;HPM_P2
2021/11/18 00:01:55;;;;;;;;;;;;;;;;;;5068180;28;19916;-48
2021/11/18 00:04:21;;;;;;;;;;;;;;;;;;5066918;28;19912;-51
2021/11/18 00:06:49;;;;;;;;;;;;;;;;;;5047981;28;19936;-50
2021/11/18 00:09:15;;;;;;;;;;;;;;;;;;5052972;28;20425;-48
2021/11/18 00:11:41;;;;;;;;;;;;;;;;;;5068156;28;19956;-49
2021/11/18 00:14:07;;;;;;;;;;;;;;;;;;5067717;28;19912;-48
2021/11/18 00:16:34;;;;;;;;;;;;;;;;;;5066112;28;19912;-51
2021/11/18 00:19:00;;;;;;;;;;;;;;;;;;5065437;28;19920;-52
2021/11/18 00:21:26;;;;;;;;;;;;;;;;;;5066288;28;20441;-51
2021/11/18 00:23:52;;;;;;;;;;;;;;;;;;5067601;28;20024;-52
2021/11/18 00:26:18;;;;;;;;;;;;;;;;;;5064191;28;19912;-52
2021/11/18 00:28:44;;;;;;;;;;;;;;;;;;5048056;28;19996;-49
2021/11/18 00:31:11;;;;;;;;;;;;;;;;;;5048429;28;19916;-48
2021/11/18 00:33:37;;;;;;;;;;;;;;;;;;5047593;28;20380;-48
2021/11/18 00:36:03;;;;;;;;;;;;;;;;;;5047154;28;19970;-49
2021/11/18 00:38:28;;;;;;;;;;;;;;;;;;5064067;28;19920;-49
2021/11/18 00:40:55;;;;;;;;;;;;;;;;;;5067235;28;19920;-48
2021/11/18 00:43:21;;;;;;;;;;;;;;;;;;5066980;28;19909;-49
2021/11/18 00:45:47;;;;;;;;;;;;;;;;;;5067143;28;19919;-49
2021/11/18 00:48:13;;;;;;;;;;;;;;;;;;5053345;28;19959;-49
2021/11/18 00:50:39;;;;;;;;;;;;;;;;;;5047676;28;19909;-50
2021/11/18 00:53:05;;;;;;;;;;;;;;;;;;5065203;28;19916;-49
2021/11/18 00:55:32;;;;;;;;;;;;;;;;;;5066647;28;19912;-48
2021/11/18 00:57:58;;;;;;;;;;;;;;;;;;5066055;28;20336;-52
2021/11/18 01:00:24;;;;;;;;;;;;;;;;;;5066852;28;19923;-51
2021/11/18 01:02:49;;;;;;;;;;;;;;;;;;5066611;28;19913;-51
2021/11/18 01:05:15;;;;;;;;;;;;;;;;;;5065926;28;19912;-51
2021/11/18 01:07:41;;;;;;;;;;;;;;;;;;5065491;28;19964;-50
2021/11/18 01:10:07;;;;;;;;;;;;;;;;;;5055880;28;20407;-52
2021/11/18 01:12:33;;;;;;;;;;;;;;;;;;5046528;28;19924;-51
2021/11/18 01:14:59;;;;;;;;;;;;;;;;;;5052172;28;20738;-48
2021/11/18 01:17:25;;;;;;;;;;;;;;;;;;5066550;28;19919;-48
2021/11/18 01:19:51;;;;;;;;;;;;;;;;;;5066271;28;19923;-48
2021/11/18 01:22:19;;;;;;;;;;;;;;;;;;5066363;28;19908;-50
2021/11/18 01:24:45;;;;;;;;;;;;;;;;;;5064020;28;20447;-49
2021/11/18 01:27:10;;;;;;;;;;;;;;;;;;5056507;28;19995;-51
2021/11/18 01:29:36;;;;;;;;;;;;;;;;;;5066340;28;19912;-49
2021/11/18 01:32:02;;;;;;;;;;;;;;;;;;5064470;28;19916;-49
2021/11/18 01:34:28;;;;;;;;;;;;;;;;;;5066040;28;19915;-48
2021/11/18 01:36:54;;;;;;;;;;;;;;;;;;5065928;28;19915;-49
2021/11/18 01:39:20;;;;;;;;;;;;;;;;;;5066031;28;20011;-48
2021/11/18 01:41:47;;;;;;;;;;;;;;;;;;5064879;28;19999;-48
2021/11/18 01:44:14;;;;;;;;;;;;;;;;;;5065882;28;19999;-48
2021/11/18 01:46:40;;;;;;;;;;;;;;;;;;5066398;28;19916;-49
2021/11/18 01:49:07;;;;;;;;;;;;;;;;;;5065688;28;19916;-49
2021/11/18 01:51:34;;;;;;;;;;;;;;;;;;5064042;28;19934;-51
2021/11/18 01:54:00;;;;;;;;;;;;;;;;;;5057610;28;20612;-51
2021/11/18 01:56:26;;;;;;;;;;;;;;;;;;5065649;28;19962;-51
2021/11/18 01:58:52;;;;;;;;;;;;;;;;;;5064667;28;19948;-50
2021/11/18 02:01:18;;;;;;;;;;;;;;;;;;5065765;28;19966;-52
2021/11/18 02:03:45;;;;;;;;;;;;;;;;;;5064138;28;20458;-51
2021/11/18 02:06:11;;;;;;;;;;;;;;;;;;5066114;28;19958;-49
2021/11/18 02:08:36;;;;;;;;;;;;;;;;;;5065734;28;19913;-51
2021/11/18 02:11:06;;;;;;;;;;;;;;;;;;5065498;28;20216;-50
2021/11/18 02:13:32;;;;;;;;;;;;;;;;;;5063920;28;20035;-52
2021/11/18 02:15:59;;;;;;;;;;;;;;;;;;5065382;28;20012;-50
2021/11/18 02:18:26;;;;;;;;;;;;;;;;;;5064207;28;20413;-52
2021/11/18 02:20:52;;;;;;;;;;;;;;;;;;5065278;28;19923;-51
2021/11/18 02:23:17;;;;;;;;;;;;;;;;;;5064030;28;19916;-51
2021/11/18 02:25:44;;;;;;;;;;;;;;;;;;5065297;28;19915;-50
2021/11/18 02:28:10;;;;;;;;;;;;;;;;;;5065849;28;20481;-50
2021/11/18 02:30:38;;;;;;;;;;;;;;;;;;5061958;28;19916;-50
2021/11/18 02:33:04;;;;;;;;;;;;;;;;;;5057595;28;19912;-52
2021/11/18 02:35:30;;;;;;;;;;;;;;;;;;5064882;28;20473;-48
2021/11/18 02:37:56;;;;;;;;;;;;;;;;;;5065429;28;19908;-49
2021/11/18 02:40:22;;;;;;;;;;;;;;;;;;5065182;28;19935;-52
2021/11/18 02:42:48;;;;;;;;;;;;;;;;;;5064020;28;20429;-48
2021/11/18 02:45:14;;;;;;;;;;;;;;;;;;5064810;28;20286;-48
2021/11/18 02:47:41;;;;;;;;;;;;;;;;;;5065251;28;19958;-51
2021/11/18 02:50:07;;;;;;;;;;;;;;;;;;5064548;28;19912;-49
2021/11/18 02:52:34;;;;;;;;;;;;;;;;;;5063634;28;19913;-50
2021/11/18 02:55:00;;;;;;;;;;;;;;;;;;5065067;28;19912;-52
2021/11/18 02:57:27;;;;;;;;;;;;;;;;;;5064821;28;19909;-49
2021/11/18 02:59:54;;;;;;;;;;;;;;;;;;5064793;28;20387;-50
2021/11/18 03:02:21;;;;;;;;;;;;;;;;;;5062671;28;19923;-51
2021/11/18 03:04:47;;;;;;;;;;;;;;;;;;5064491;28;20027;-52
2021/11/18 03:07:13;;;;;;;;;;;;;;;;;;5064756;28;20010;-50
2021/11/18 03:09:39;;;;;;;;;;;;;;;;;;5065731;28;19908;-52
2021/11/18 03:12:06;;;;;;;;;;;;;;;;;;5063838;28;19916;-49
2021/11/18 03:14:32;;;;;;;;;;;;;;;;;;5064800;28;19934;-52
2021/11/18 03:16:58;;;;;;;;;;;;;;;;;;5064609;28;19912;-47
2021/11/18 03:19:24;;;;;;;;;;;;;;;;;;5064463;28;20471;-48
2021/11/18 03:21:50;;;;;;;;;;;;;;;;;;5063771;28;19923;-49
2021/11/18 03:24:16;;;;;;;;;;;;;;;;;;5063559;28;20234;-48
2021/11/18 03:26:42;;;;;;;;;;;;;;;;;;5065725;28;19986;-50
2021/11/18 03:29:09;;;;;;;;;;;;;;;;;;5069406;28;19908;-49
2021/11/18 03:31:34;;;;;;;;;;;;;;;;;;5067288;28;19924;-50
2021/11/18 03:34:00;;;;;;;;;;;;;;;;;;5065319;28;19916;-50
2021/11/18 03:36:26;;;;;;;;;;;;;;;;;;5050244;28;19913;-49
2021/11/18 03:38:52;;;;;;;;;;;;;;;;;;5048639;28;20402;-49
2021/11/18 03:41:19;;;;;;;;;;;;;;;;;;5048114;28;19935;-52
2021/11/18 03:43:45;;;;;;;;;;;;;;;;;;5052745;28;19912;-52
2021/11/18 03:46:11;;;;;;;;;;;;;;;;;;5067949;28;20395;-52
2021/11/18 03:48:37;;;;;;;;;;;;;;;;;;5068398;28;19913;-50
2021/11/18 03:51:03;;;;;;;;;;;;;;;;;;5068410;28;19981;-51
2021/11/18 03:53:29;;;;;;;;;;;;;;;;;;5065394;28;19921;-50
2021/11/18 03:55:55;;;;;;;;;;;;;;;;;;5049233;28;20399;-50
2021/11/18 03:58:21;;;;;;;;;;;;;;;;;;5048047;28;19963;-52
2021/11/18 04:00:46;;;;;;;;;;;;;;;;;;5047821;28;20435;-52
2021/11/18 04:03:12;;;;;;;;;;;;;;;;;;5048703;28;19947;-50
2021/11/18 04:05:38;;;;;;;;;;;;;;;;;;5068478;28;20269;-52
2021/11/18 04:08:04;;;;;;;;;;;;;;;;;;5067862;28;19985;-48
2021/11/18 04:10:30;;;;;;;;;;;;;;;;;;5067646;28;19913;-53
2021/11/18 04:12:56;;;;;;;;;;;;;;;;;;5067964;28;19924;-52
2021/11/18 04:15:22;;;;;;;;;;;;;;;;;;5065831;28;19966;-50
2021/11/18 04:17:48;;;;;;;;;;;;;;;;;;5067405;28;19908;-49
2021/11/18 04:20:14;;;;;;;;;;;;;;;;;;5067527;28;20002;-49
2021/11/18 04:22:39;;;;;;;;;;;;;;;;;;5068256;28;20439;-48
2021/11/18 04:25:05;;;;;;;;;;;;;;;;;;5065049;28;19917;-50
2021/11/18 04:27:31;;;;;;;;;;;;;;;;;;5047428;28;19951;-51
2021/11/18 04:29:58;;;;;;;;;;;;;;;;;;5047470;28;19920;-52
2021/11/18 04:32:24;;;;;;;;;;;;;;;;;;5045574;28;20606;-52
2021/11/18 04:34:50;;;;;;;;;;;;;;;;;;5060442;28;19916;-53
2021/11/18 04:37:16;;;;;;;;;;;;;;;;;;5067102;28;19919;-51
2021/11/18 04:39:42;;;;;;;;;;;;;;;;;;5066771;28;20066;-51
2021/11/18 04:42:07;;;;;;;;;;;;;;;;;;5068072;28;19916;-53
2021/11/18 04:44:35;;;;;;;;;;;;;;;;;;5065755;28;19931;-49
2021/11/18 04:47:01;;;;;;;;;;;;;;;;;;5066891;28;19921;-50
2021/11/18 04:49:26;;;;;;;;;;;;;;;;;;5066998;28;19934;-48
2021/11/18 04:51:52;;;;;;;;;;;;;;;;;;5066985;28;19912;-49
2021/11/18 04:54:18;;;;;;;;;;;;;;;;;;5066092;28;19909;-49
2021/11/18 04:56:44;;;;;;;;;;;;;;;;;;5065166;28;19970;-52
2021/11/18 04:59:10;;;;;;;;;;;;;;;;;;5067319;28;20402;-51
2021/11/18 05:01:36;;;;;;;;;;;;;;;;;;5056091;28;19917;-51
2021/11/18 05:04:02;;;;;;;;;;;;;;;;;;5056629;28;19955;-52
2021/11/18 05:06:28;;;;;;;;;;;;;;;;;;5049958;28;19920;-51
2021/11/18 05:08:54;;;;;;;;;;;;;;;;;;5048482;28;19948;-52
2021/11/18 05:11:20;;;;;;;;;;;;;;;;;;5047971;28;20415;-52
2021/11/18 05:13:46;;;;;;;;;;;;;;;;;;5048294;28;20446;-51
2021/11/18 05:16:12;;;;;;;;;;;;;;;;;;5050332;28;19917;-51
2021/11/18 05:18:38;;;;;;;;;;;;;;;;;;5064299;28;19954;-49
2021/11/18 05:21:04;;;;;;;;;;;;;;;;;;5061941;28;19916;-52
2021/11/18 05:23:30;;;;;;;;;;;;;;;;;;5047904;28;19912;-51
2021/11/18 05:25:56;;;;;;;;;;;;;;;;;;5059605;28;19985;-52
2021/11/18 05:28:22;;;;;;;;;;;;;;;;;;5067804;28;19913;-50
2021/11/18 05:30:48;;;;;;;;;;;;;;;;;;5060461;28;19923;-48
2021/11/18 05:33:14;;;;;;;;;;;;;;;;;;5056246;28;19935;-52
2021/11/18 05:35:40;;;;;;;;;;;;;;;;;;5065916;28;19916;-49
2021/11/18 05:38:06;;;;;;;;;;;;;;;;;;5066369;28;19912;-49
2021/11/18 05:40:32;;;;;;;;;;;;;;;;;;5064893;28;20311;-52
2021/11/18 05:42:59;;;;;;;;;;;;;;;;;;5057286;28;20015;-50
2021/11/18 05:45:25;;;;;;;;;;;;;;;;;;5046977;28;19909;-50
2021/11/18 05:47:51;;;;;;;;;;;;;;;;;;5054994;28;19913;-52
2021/11/18 05:50:17;;;;;;;;;;;;;;;;;;5066919;28;20395;-52
2021/11/18 05:52:44;;;;;;;;;;;;;;;;;;5066823;28;20016;-52
2021/11/18 05:55:09;;;;;;;;;;;;;;;;;;5066115;28;19956;-51
2021/11/18 05:57:35;;;;;;;;;;;;;;;;;;5061255;28;20041;-50
2021/11/18 06:00:01;;;;;;;;;;;;;;;;;;5049912;28;20659;-48
2021/11/18 06:02:27;;;;;;;;;;;;;;;;;;5045558;28;19913;-51
2021/11/18 06:04:53;;;;;;;;;;;;;;;;;;5045589;28;19913;-48
2021/11/18 06:07:19;;;;;;;;;;;;;;;;;;5045375;28;19912;-50
2021/11/18 06:09:45;;;;;;;;;;;;;;;;;;5045414;28;19912;-52
2021/11/18 06:12:11;;;;;;;;;;;;;;;;;;5045972;28;20016;-49
2021/11/18 06:14:38;;;;;;;;;;;;;;;;;;5045698;28;19913;-51
2021/11/18 06:17:03;;;;;;;;;;;;;;;;;;5045090;28;19913;-52
2021/11/18 06:19:29;;;;;;;;;;;;;;;;;;5045263;28;19936;-52
2021/11/18 06:21:57;;;;;;;;;;;;;;;;;;5045615;28;19913;-52
2021/11/18 06:24:22;;;;;;;;;;;;;;;;;;5045033;28;19920;-50
2021/11/18 06:26:48;;;;;;;;;;;;;;;;;;5045254;28;19912;-50
2021/11/18 06:29:19;;;;;;;;;;;;;;;;;;5045042;28;20438;-48
2021/11/18 06:31:45;;;;;;;;;;;;;;;;;;5045211;28;19991;-49
2021/11/18 06:34:11;;;;;;;;;;;;;;;;;;5045851;28;20001;-48
2021/11/18 06:36:38;;;;;;;;;;;;;;;;;;5045662;28;19909;-50
2021/11/18 06:39:03;;;;;;;;;;;;;;;;;;5045128;28;19979;-52
2021/11/18 06:41:30;;;;;;;;;;;;;;;;;;5045105;28;19960;-51
2021/11/18 06:43:56;;;;;;;;;;;;;;;;;;5054821;28;20357;-48
2021/11/18 06:46:23;;;;;;;;;;;;;;;;;;5048420;28;19912;-51
2021/11/18 06:48:49;;;;;;;;;;;;;;;;;;5048259;28;19988;-51
2021/11/18 06:51:16;;;;;;;;;;;;;;;;;;5055940;28;19913;-51
2021/11/18 06:53:42;;;;;;;;;;;;;;;;;;5056717;28;19916;-51
2021/11/18 06:56:08;;;;;;;;;;;;;;;;;;5048690;28;19977;-52
2021/11/18 06:58:34;;;;;;;;;;;;;;;;;;5050832;28;19916;-49
2021/11/18 07:01:00;;;;;;;;;;;;;;;;;;5066457;28;19959;-50
2021/11/18 07:03:26;;;;;;;;;;;;;;;;;;5069854;28;19944;-49
2021/11/18 07:05:52;;;;;;;;;;;;;;;;;;5070492;28;19909;-48
2021/11/18 07:08:18;;;;;;;;;;;;;;;;;;5070252;28;19919;-49
2021/11/18 07:10:44;;;;;;;;;;;;;;;;;;5064570;28;19983;-48
2021/11/18 07:13:10;;;;;;;;;;;;;;;;;;5050914;28;20031;-47
2021/11/18 07:15:35;;;;;;;;;;;;;;;;;;5049890;28;19905;-48
2021/11/18 07:18:01;;;;;;;;;;;;;;;;;;5050538;28;20348;-50
2021/11/18 07:20:27;;;;;;;;;;;;;;;;;;5049926;28;19920;-53
2021/11/18 07:22:53;;;;;;;;;;;;;;;;;;5050174;28;20008;-48
2021/11/18 07:25:21;;;;;;;;;;;;;;;;;;5055280;28;19920;-51
2021/11/18 07:27:47;;;;;;;;;;;;;;;;;;5068649;28;19913;-49
2021/11/18 07:30:13;;;;;;;;;;;;;;;;;;5053470;28;19966;-51
2021/11/18 07:32:39;;;;;;;;;;;;;;;;;;5054136;28;19959;-49
2021/11/18 07:35:05;;;;;;;;;;;;;;;;;;5050239;28;19920;-50
2021/11/18 07:37:30;;;;;;;;;;;;;;;;;;5048984;28;20015;-49
2021/11/18 07:39:58;;;;;;;;;;;;;;;;;;5048507;28;19913;-48
2021/11/18 07:42:24;;;;;;;;;;;;;;;;;;5048203;28;20423;-50
2021/11/18 07:44:51;;;;;;;;;;;;;;;;;;5048299;28;19924;-47
2021/11/18 07:47:17;;;;;;;;;;;;;;;;;;5053720;28;19916;-48
2021/11/18 07:49:43;;;;;;;;;;;;;;;;;;5068177;28;20291;-48
2021/11/18 07:52:09;;;;;;;;;;;;;;;;;;5068682;28;19912;-49
2021/11/18 07:54:34;;;;;;;;;;;;;;;;;;5064611;28;19943;-48
2021/11/18 07:57:01;;;;;;;;;;;;;;;;;;5052692;28;19912;-48
2021/11/18 07:59:28;;;;;;;;;;;;;;;;;;5049498;28;19913;-48
2021/11/18 08:01:54;;;;;;;;;;;;;;;;;;5059987;28;19920;-50
2021/11/18 08:04:21;;;;;;;;;;;;;;;;;;5055826;28;19961;-49
2021/11/18 08:06:47;;;;;;;;;;;;;;;;;;5064489;28;20547;-49
2021/11/18 08:09:13;;;;;;;;;;;;;;;;;;5054128;28;19917;-48
2021/11/18 08:11:39;;;;;;;;;;;;;;;;;;5048714;28;20293;-49
2021/11/18 08:14:04;;;;;;;;;;;;;;;;;;5050583;28;20427;-49
2021/11/18 08:16:30;;;;;;;;;;;;;;;;;;5065502;28;19912;-48
2021/11/18 08:18:56;;;;;;;;;;;;;;;;;;5060448;28;19909;-50
2021/11/18 08:21:23;;;;;;;;;;;;;;;;;;5047927;28;19920;-51
2021/11/18 08:23:49;;;;;;;;;;;;;;;;;;5048537;28;20311;-50
2021/11/18 08:26:15;;;;;;;;;;;;;;;;;;5048341;28;19904;-48
2021/11/18 08:28:42;;;;;;;;;;;;;;;;;;5056850;28;19913;-49
2021/11/18 08:31:08;;;;;;;;;;;;;;;;;;5058976;28;19920;-48
2021/11/18 08:33:34;;;;;;;;;;;;;;;;;;5060578;28;19924;-50
2021/11/18 08:36:00;;;;;;;;;;;;;;;;;;5053440;28;19921;-49
2021/11/18 08:38:29;;;;;;;;;;;;;;;;;;5060952;28;19908;-50
2021/11/18 08:40:55;;;;;;;;;;;;;;;;;;5058489;28;19942;-53
2021/11/18 08:43:21;;;;;;;;;;;;;;;;;;5052651;28;19912;-49
2021/11/18 08:45:47;;;;;;;;;;;;;;;;;;5065329;28;20310;-52
2021/11/18 08:48:14;;;;;;;;;;;;;;;;;;5066483;28;19908;-49
2021/11/18 08:50:39;;;;;;;;;;;;;;;;;;5052519;28;19951;-52
2021/11/18 08:53:05;;;;;;;;;;;;;;;;;;5068498;28;19908;-52
2021/11/18 08:55:33;;;;;;;;;;;;;;;;;;5066671;28;20295;-48
2021/11/18 08:57:59;;;;;;;;;;;;;;;;;;5067301;28;19913;-50
2021/11/18 09:00:25;;;;;;;;;;;;;;;;;;5066736;28;20003;-47
2021/11/18 09:02:51;;;;;;;;;;;;;;;;;;5051576;28;20000;-51
2021/11/18 09:05:18;;;;;;;;;;;;;;;;;;5066759;28;20423;-51
2021/11/18 09:07:44;;;;;;;;;;;;;;;;;;5065740;28;20442;-49
2021/11/18 09:10:12;;;;;;;;;;;;;;;;;;5071388;28;19920;-51
2021/11/18 09:12:39;;;;;;;;;;;;;;;;;;5088023;28;20345;-51
2021/11/18 09:15:05;;;;;;;;;;;;;;;;;;5072430;28;20296;-51
2021/11/18 09:17:32;;;;;;;;;;;;;;;;;;5067060;28;19999;-50
2021/11/18 09:19:58;;;;;;;;;;;;;;;;;;5067136;28;19919;-51
2021/11/18 09:22:25;;;;;;;;;;;;;;;;;;5067141;28;20451;-52
2021/11/18 09:24:51;;;;;;;;;;;;;;;;;;5066667;28;20284;-49
2021/11/18 09:27:17;;;;;;;;;;;;;;;;;;5083324;28;19908;-49
2021/11/18 09:29:44;;;;;;;;;;;;;;;;;;5086932;28;20353;-49
2021/11/18 09:32:10;;;;;;;;;;;;;;;;;;5087291;28;20419;-49
2021/11/18 09:34:36;;;;;;;;;;;;;;;;;;5087819;28;19908;-53
2021/11/18 09:37:02;;;;;;;;;;;;;;;;;;5087301;28;19948;-52
2021/11/18 09:39:28;;;;;;;;;;;;;;;;;;5067006;28;20315;-52
2021/11/18 09:41:55;;;;;;;;;;;;;;;;;;5054219;28;19924;-51
2021/11/18 09:44:22;;;;;;;;;;;;;;;;;;5065820;28;20447;-52
2021/11/18 09:46:48;;;;;;;;;;;;;;;;;;5066009;28;19957;-51
2021/11/18 09:49:14;;;;;;;;;;;;;;;;;;5066531;28;20540;-50
2021/11/18 09:51:41;;;;;;;;;;;;;;;;;;5066219;28;20328;-50
2021/11/18 09:54:08;;;;;;;;;;;;;;;;;;5066656;28;19923;-49
2021/11/18 09:56:34;;;;;;;;;;;;;;;;;;5066884;28;19919;-49
2021/11/18 09:58:59;;;;;;;;;;;;;;;;;;5066365;28;19916;-51
2021/11/18 10:01:25;;;;;;;;;;;;;;;;;;5060789;28;19921;-50
2021/11/18 10:03:51;;;;;;;;;;;;;;;;;;5046308;28;19909;-50
2021/11/18 10:06:17;;;;;;;;;;;;;;;;;;5050214;28;19923;-48
2021/11/18 10:08:44;;;;;;;;;;;;;;;;;;5064330;28;20300;-52
2021/11/18 10:11:10;;;;;;;;;;;;;;;;;;5068333;28;19920;-49
2021/11/18 10:13:36;;;;;;;;;;;;;;;;;;5067319;28;20315;-51
2021/11/18 10:16:02;;;;;;;;;;;;;;;;;;5061964;28;19913;-51
2021/11/18 10:18:28;;;;;;;;;;;;;;;;;;5057425;28;19920;-52
2021/11/18 10:20:54;;;;;;;;;;;;;;;;;;5046803;28;19913;-48
2021/11/18 10:23:24;;;;;;;;;;;;;;;;;;5046640;28;19963;-50
2021/11/18 10:25:50;;;;;;;;;;;;;;;;;;5046453;28;20450;-49
2021/11/18 10:28:16;;;;;;;;;;;;;;;;;;5046254;28;19912;-49
2021/11/18 10:30:41;;;;;;;;;;;;;;;;;;5046519;28;19962;-50
2021/11/18 10:33:07;;;;;;;;;;;;;;;;;;5056574;28;19917;-48
2021/11/18 10:35:33;;;;;;;;;;;;;;;;;;5063207;28;20517;-48
2021/11/18 10:37:59;;;;;;;;;;;;;;;;;;5054737;28;20003;-49
2021/11/18 10:40:25;;;;;;;;;;;;;;;;;;5062046;28;20016;-49
2021/11/18 10:42:51;;;;;;;;;;;;;;;;;;5054472;28;19913;-51
2021/11/18 10:45:18;;;;;;;;;;;;;;;;;;5055885;28;19928;-48
2021/11/18 10:47:44;;;;;;;;;;;;;;;;;;5051534;28;19916;-47
2021/11/18 10:50:10;;;;;;;;;;;;;;;;;;5047370;28;20008;-50
2021/11/18 10:52:37;;;;;;;;;;;;;;;;;;5085273;28;20379;-50
2021/11/18 10:55:03;;;;;;;;;;;;;;;;;;5064692;28;19940;-50
2021/11/18 10:57:31;;;;;;;;;;;;;;;;;;5045757;28;19913;-47
2021/11/18 10:59:57;;;;;;;;;;;;;;;;;;5045908;28;19908;-50
2021/11/18 11:02:23;;;;;;;;;;;;;;;;;;5047223;28;19980;-50
2021/11/18 11:04:50;;;;;;;;;;;;;;;;;;5046139;28;20296;-50
2021/11/18 11:07:16;;;;;;;;;;;;;;;;;;5045965;28;19966;-49
2021/11/18 11:09:43;;;;;;;;;;;;;;;;;;5053758;28;20435;-47
2021/11/18 11:12:09;;;;;;;;;;;;;;;;;;5064883;28;20311;-49
2021/11/18 11:14:35;;;;;;;;;;;;;;;;;;5066146;28;19913;-50
2021/11/18 11:17:01;;;;;;;;;;;;;;;;;;5066269;28;19913;-47
2021/11/18 11:19:27;;;;;;;;;;;;;;;;;;5053778;28;20000;-49
2021/11/18 11:21:54;;;;;;;;;;;;;;;;;;5045996;28;20272;-50
2021/11/18 11:24:19;;;;;;;;;;;;;;;;;;5056951;28;19924;-50
2021/11/18 11:26:46;;;;;;;;;;;;;;;;;;5065908;28;20451;-51
2021/11/18 11:29:12;;;;;;;;;;;;;;;;;;5063034;28;19908;-47
2021/11/18 11:31:38;;;;;;;;;;;;;;;;;;5054333;28;20083;-47
2021/11/18 11:34:04;;;;;;;;;;;;;;;;;;5066566;28;19908;-50
2021/11/18 11:36:30;;;;;;;;;;;;;;;;;;5065356;28;19974;-49
2021/11/18 11:38:56;;;;;;;;;;;;;;;;;;5064580;28;19916;-50
2021/11/18 11:41:25;;;;;;;;;;;;;;;;;;5066657;28;19916;-51
2021/11/18 11:43:51;;;;;;;;;;;;;;;;;;5066871;28;19965;-50
2021/11/18 11:46:17;;;;;;;;;;;;;;;;;;5064446;28;20311;-49
2021/11/18 11:48:43;;;;;;;;;;;;;;;;;;5069214;28;19920;-49
2021/11/18 11:51:09;;;;;;;;;;;;;;;;;;5063654;28;20004;-51
2021/11/18 11:53:35;;;;;;;;;;;;;;;;;;5051067;28;19909;-51
2021/11/18 11:56:02;;;;;;;;;;;;;;;;;;5050825;28;19935;-49
2021/11/18 11:58:28;;;;;;;;;;;;;;;;;;5050061;28;20015;-46
2021/11/18 12:00:54;;;;;;;;;;;;;;;;;;5050887;28;20074;-49
2021/11/18 12:03:21;;;;;;;;;;;;;;;;;;5050356;28;19913;-48
2021/11/18 12:05:47;;;;;;;;;;;;;;;;;;5052354;28;19916;-48
2021/11/18 12:08:13;;;;;;;;;;;;;;;;;;5060264;28;19908;-49
2021/11/18 12:10:39;;;;;;;;;;;;;;;;;;5054960;28;19916;-50
2021/11/18 12:13:05;;;;;;;;;;;;;;;;;;5070080;28;19917;-48
2021/11/18 12:15:31;;;;;;;;;;;;;;;;;;5065392;28;19912;-47
2021/11/18 12:17:56;;;;;;;;;;;;;;;;;;5059997;28;19978;-50
2021/11/18 12:20:22;;;;;;;;;;;;;;;;;;5065406;28;19920;-48
2021/11/18 12:22:50;;;;;;;;;;;;;;;;;;5062626;28;19920;-49
2021/11/18 12:25:16;;;;;;;;;;;;;;;;;;5061518;28;20006;-50
2021/11/18 12:27:41;;;;;;;;;;;;;;;;;;5065656;28;19956;-50
2021/11/18 12:30:07;;;;;;;;;;;;;;;;;;5050585;28;19923;-49
2021/11/18 12:32:33;;;;;;;;;;;;;;;;;;5060999;28;19992;-50
2021/11/18 12:35:00;;;;;;;;;;;;;;;;;;5063949;28;19979;-49
2021/11/18 12:37:26;;;;;;;;;;;;;;;;;;5047094;28;20016;-47
2021/11/18 12:39:52;;;;;;;;;;;;;;;;;;5047340;28;20009;-50
2021/11/18 12:42:18;;;;;;;;;;;;;;;;;;5047005;28;19917;-47
2021/11/18 12:44:47;;;;;;;;;;;;;;;;;;5047253;28;19915;-49
2021/11/18 12:47:13;;;;;;;;;;;;;;;;;;5046671;28;19908;-46
2021/11/18 12:49:39;;;;;;;;;;;;;;;;;;5047556;28;20307;-47
2021/11/18 12:52:05;;;;;;;;;;;;;;;;;;5048436;28;19909;-47
2021/11/18 12:54:31;;;;;;;;;;;;;;;;;;5046873;28;20575;-47
2021/11/18 12:56:57;;;;;;;;;;;;;;;;;;5046808;28;19913;-49
2021/11/18 12:59:23;;;;;;;;;;;;;;;;;;5045855;28;19908;-48
2021/11/18 13:01:49;;;;;;;;;;;;;;;;;;5046962;28;19974;-48
2021/11/18 13:04:15;;;;;;;;;;;;;;;;;;5046783;28;20376;-47
2021/11/18 13:06:41;;;;;;;;;;;;;;;;;;5046709;28;19912;-49
2021/11/18 13:09:07;;;;;;;;;;;;;;;;;;5047621;28;19913;-46
2021/11/18 13:11:34;;;;;;;;;;;;;;;;;;5046605;28;20407;-49
2021/11/18 13:14:00;;;;;;;;;;;;;;;;;;5046981;28;19913;-49
2021/11/18 13:16:26;;;;;;;;;;;;;;;;;;5046490;28;20406;-47
2021/11/18 13:18:52;;;;;;;;;;;;;;;;;;5046508;28;19917;-48
2021/11/18 13:21:18;;;;;;;;;;;;;;;;;;5046504;28;19920;-47
2021/11/18 13:23:44;;;;;;;;;;;;;;;;;;5046566;28;20047;-49
2021/11/18 13:26:10;;;;;;;;;;;;;;;;;;5046194;28;19917;-49
2021/11/18 13:28:37;;;;;;;;;;;;;;;;;;5046567;28;20208;-49
2021/11/18 13:31:03;;;;;;;;;;;;;;;;;;5047357;28;20372;-50
2021/11/18 13:33:30;;;;;;;;;;;;;;;;;;5046522;28;20073;-50
2021/11/18 13:35:55;;;;;;;;;;;;;;;;;;5046307;28;19909;-48
2021/11/18 13:38:21;;;;;;;;;;;;;;;;;;5046156;28;19917;-47
2021/11/18 13:40:47;;;;;;;;;;;;;;;;;;5046190;28;19978;-47
2021/11/18 13:43:16;;;;;;;;;;;;;;;;;;5046092;28;19913;-46
2021/11/18 13:45:43;;;;;;;;;;;;;;;;;;5045059;28;19966;-47
2021/11/18 13:48:09;;;;;;;;;;;;;;;;;;5045928;28;19952;-46
2021/11/18 13:50:36;;;;;;;;;;;;;;;;;;5046316;28;20376;-47
2021/11/18 13:53:02;;;;;;;;;;;;;;;;;;5045954;28;19919;-46
2021/11/18 13:55:28;;;;;;;;;;;;;;;;;;5045821;28;20444;-50
2021/11/18 13:57:54;;;;;;;;;;;;;;;;;;5053236;28;19909;-48
2021/11/18 14:00:20;;;;;;;;;;;;;;;;;;5065615;28;19923;-46
2021/11/18 14:02:46;;;;;;;;;;;;;;;;;;5055612;28;20371;-48
2021/11/18 14:05:12;;;;;;;;;;;;;;;;;;5045859;28;19913;-48
2021/11/18 14:07:38;;;;;;;;;;;;;;;;;;5045908;28;19913;-48
2021/11/18 14:10:04;;;;;;;;;;;;;;;;;;5045474;28;19967;-50
2021/11/18 14:12:30;;;;;;;;;;;;;;;;;;5044648;28;19921;-49
2021/11/18 14:14:57;;;;;;;;;;;;;;;;;;5046056;28;20242;-50
2021/11/18 14:17:24;;;;;;;;;;;;;;;;;;5045215;28;19923;-50
2021/11/18 14:19:50;;;;;;;;;;;;;;;;;;5045461;28;19920;-47
2021/11/18 14:22:16;;;;;;;;;;;;;;;;;;5044678;28;20437;-47
2021/11/18 14:24:42;;;;;;;;;;;;;;;;;;5046205;28;19940;-46
2021/11/18 14:27:09;;;;;;;;;;;;;;;;;;5045387;28;19909;-49
2021/11/18 14:29:36;;;;;;;;;;;;;;;;;;5045138;28;19917;-50
2021/11/18 14:32:02;;;;;;;;;;;;;;;;;;5045063;28;20417;-48
2021/11/18 14:34:28;;;;;;;;;;;;;;;;;;5044916;28;19913;-48
2021/11/18 14:36:54;;;;;;;;;;;;;;;;;;5045088;28;19909;-48
2021/11/18 14:39:20;;;;;;;;;;;;;;;;;;5045120;28;19935;-49
2021/11/18 14:41:45;;;;;;;;;;;;;;;;;;5045077;28;20379;-49
2021/11/18 14:44:11;;;;;;;;;;;;;;;;;;5045231;28;19909;-47
2021/11/18 14:46:37;;;;;;;;;;;;;;;;;;5045182;28;19924;-50
2021/11/18 14:49:03;;;;;;;;;;;;;;;;;;5044982;28;19947;-47
2021/11/18 14:51:29;;;;;;;;;;;;;;;;;;5044865;28;19916;-47
2021/11/18 14:53:55;;;;;;;;;;;;;;;;;;5044658;28;19909;-48
2021/11/18 14:56:21;;;;;;;;;;;;;;;;;;5044709;28;19909;-49
2021/11/18 14:58:47;;;;;;;;;;;;;;;;;;5044980;28;20391;-51
2021/11/18 15:01:13;;;;;;;;;;;;;;;;;;5045058;28;20289;-51
2021/11/18 15:03:39;;;;;;;;;;;;;;;;;;5044740;28;19909;-47
2021/11/18 15:06:04;;;;;;;;;;;;;;;;;;5045708;28;19967;-48
2021/11/18 15:08:30;;;;;;;;;;;;;;;;;;5055376;28;19920;-48
2021/11/18 15:10:56;;;;;;;;;;;;;;;;;;5062381;28;19919;-46
2021/11/18 15:13:22;;;;;;;;;;;;;;;;;;5064357;28;20375;-46
2021/11/18 15:15:48;;;;;;;;;;;;;;;;;;5054493;28;19916;-49
2021/11/18 15:18:14;;;;;;;;;;;;;;;;;;5059837;28;19912;-49
2021/11/18 15:20:41;;;;;;;;;;;;;;;;;;5066695;28;20386;-50
2021/11/18 15:23:07;;;;;;;;;;;;;;;;;;5064406;28;20641;-49
2021/11/18 15:25:33;;;;;;;;;;;;;;;;;;5069503;28;19948;-50
2021/11/18 15:27:59;;;;;;;;;;;;;;;;;;5070293;28;19909;-49
2021/11/18 15:30:26;;;;;;;;;;;;;;;;;;5052513;28;20016;-50
2021/11/18 15:32:52;;;;;;;;;;;;;;;;;;5066675;28;19924;-49
2021/11/18 15:35:19;;;;;;;;;;;;;;;;;;5080223;28;19913;-50
2021/11/18 15:37:45;;;;;;;;;;;;;;;;;;5067524;28;19909;-49
2021/11/18 15:40:13;;;;;;;;;;;;;;;;;;5063904;28;19913;-51
2021/11/18 15:42:39;;;;;;;;;;;;;;;;;;5048610;28;19913;-47
2021/11/18 15:45:04;;;;;;;;;;;;;;;;;;5048863;28;19939;-49
2021/11/18 15:47:30;;;;;;;;;;;;;;;;;;5059645;28;19919;-49
2021/11/18 15:49:56;;;;;;;;;;;;;;;;;;5064720;28;19913;-47
2021/11/18 15:52:24;;;;;;;;;;;;;;;;;;5059167;28;20011;-49
2021/11/18 15:54:50;;;;;;;;;;;;;;;;;;5060315;28;19920;-49
2021/11/18 15:57:16;;;;;;;;;;;;;;;;;;5069148;28;19962;-50
2021/11/18 15:59:42;;;;;;;;;;;;;;;;;;5071310;28;19921;-50
2021/11/18 16:02:08;;;;;;;;;;;;;;;;;;5088935;28;19959;-47
2021/11/18 16:04:34;;;;;;;;;;;;;;;;;;5088668;28;20275;-46
2021/11/18 16:07:01;;;;;;;;;;;;;;;;;;5088858;28;19936;-48
2021/11/18 16:09:27;;;;;;;;;;;;;;;;;;5077604;28;19923;-47
2021/11/18 16:11:53;;;;;;;;;;;;;;;;;;5065882;28;20125;-47
2021/11/18 16:14:23;;;;;;;;;;;;;;;;;;5059948;28;20019;-50
2021/11/18 16:16:49;;;;;;;;;;;;;;;;;;5059812;28;20345;-48
2021/11/18 16:19:15;;;;;;;;;;;;;;;;;;5050046;28;19909;-51
2021/11/18 16:21:42;;;;;;;;;;;;;;;;;;5048580;28;20455;-51
2021/11/18 16:24:08;;;;;;;;;;;;;;;;;;5049333;28;19919;-47
2021/11/18 16:26:33;;;;;;;;;;;;;;;;;;5068210;28;19975;-48
2021/11/18 16:28:59;;;;;;;;;;;;;;;;;;5067925;28;19969;-49
2021/11/18 16:31:26;;;;;;;;;;;;;;;;;;5054136;28;20321;-47
2021/11/18 16:33:52;;;;;;;;;;;;;;;;;;5057647;28;19909;-49
2021/11/18 16:36:20;;;;;;;;;;;;;;;;;;5048386;28;19913;-49
2021/11/18 16:38:46;;;;;;;;;;;;;;;;;;5064965;28;20440;-50